Time;durP1;ratioP1;P1;durP2;ratioP2;P2;SDS_P1;SDS_P2;PMS_P1;PMS_P2;Temp;Humidity;BMP_temperature;BMP_pressure;BME280_temperature;BME280_humidity;BME280_pressure;Samples;Min_cycle;Max_cycle;Signal;HPM_P1;HPM_P2
2021/03/27 00:00:35;;;;;;;65.92;33.60;;;;;;;6.96;62.12;100146.00;252561;1105;115871;-66
2021/03/27 00:05:59;;;;;;;66.53;34.90;;;;;;;7.01;62.06;100137.45;251707;1105;116009;-68
2021/03/27 00:11:39;;;;;;;56.80;33.25;;;;;;;6.99;62.71;100128.88;251627;1105;116054;-68
2021/03/27 00:16:53;;;;;;;41.45;20.82;;;;;;;6.93;63.59;100125.20;251451;1105;116357;-65
2021/03/27 00:22:04;;;;;;;51.60;30.82;;;;;;;6.90;62.78;100122.13;252402;1105;116429;-65
2021/03/27 00:27:16;;;;;;;62.93;30.97;;;;;;;6.81;62.60;100124.14;252420;1105;116760;-65
2021/03/27 00:32:33;;;;;;;64.73;31.37;;;;;;;6.68;63.29;100117.00;253245;1104;115979;-66
2021/03/27 00:37:40;;;;;;;39.53;20.40;;;;;;;6.58;64.42;100116.55;252372;1105;115148;-66
2021/03/27 00:42:49;;;;;;;42.25;23.80;;;;;;;6.49;63.79;100107.14;253122;1105;115948;-66
2021/03/27 00:48:21;;;;;;;48.58;26.52;;;;;;;6.41;64.53;100110.81;254740;1105;116352;-66
2021/03/27 00:53:29;;;;;;;59.75;35.48;;;;;;;6.38;65.79;100105.91;254458;1105;115365;-66
2021/03/27 00:58:57;;;;;;;70.42;36.13;;;;;;;6.39;65.57;100091.66;254706;1104;115848;-67
2021/03/27 01:04:04;;;;;;;54.38;27.98;;;;;;;6.30;65.97;100087.54;253416;1105;115544;-66
2021/03/27 01:09:10;;;;;;;33.00;19.77;;;;;;;6.22;66.89;100086.89;253942;1105;115634;-66
2021/03/27 01:14:20;;;;;;;53.93;32.03;;;;;;;6.12;65.78;100081.95;252088;1105;116254;-66
2021/03/27 01:19:33;;;;;;;54.47;29.40;;;;;;;6.05;66.76;100091.72;251858;1105;117667;-68
2021/03/27 01:24:38;;;;;;;36.80;18.20;;;;;;;6.03;67.70;100077.86;252732;1105;115580;-68
2021/03/27 01:29:51;;;;;;;65.47;34.43;;;;;;;6.11;66.44;100096.23;253381;1104;116789;-70
2021/03/27 01:35:02;;;;;;;58.20;32.88;;;;;;;6.20;65.46;100097.67;252034;1105;115760;-70
2021/03/27 01:40:31;;;;;;;61.33;35.48;;;;;;;6.35;65.29;100094.89;252360;1105;117531;-71
2021/03/27 01:45:54;;;;;;;65.15;34.80;;;;;;;6.50;66.28;100097.37;252378;1105;117959;-71
2021/03/27 01:51:33;;;;;;;50.63;27.40;;;;;;;6.47;72.04;100082.69;252300;1105;116999;-70
2021/03/27 01:57:06;;;;;;;55.40;31.77;;;;;;;6.35;71.18;100071.06;252993;1105;116656;-70
2021/03/27 02:02:17;;;;;;;45.45;24.37;;;;;;;6.21;71.62;100056.95;251818;1105;116013;-69
2021/03/27 02:07:38;;;;;;;63.20;37.40;;;;;;;6.13;72.69;100053.66;252248;1105;115356;-69
2021/03/27 02:12:57;;;;;;;70.40;39.20;;;;;;;6.13;72.38;100054.47;252495;1105;116333;-69
2021/03/27 02:18:51;;;;;;;50.88;28.80;;;;;;;6.14;71.23;100045.52;252892;1105;116322;-69
2021/03/27 02:24:09;;;;;;;58.95;33.75;;;;;;;6.14;71.96;100050.00;253222;1105;115810;-69
2021/03/27 02:29:48;;;;;;;56.30;32.65;;;;;;;6.11;72.65;100047.77;252166;1105;116028;-69
2021/03/27 02:35:04;;;;;;;59.63;32.83;;;;;;;6.11;70.86;100045.13;252944;1104;116214;-69
2021/03/27 02:40:08;;;;;;;74.85;42.15;;;;;;;6.13;71.07;100038.59;252930;1105;116088;-69
2021/03/27 02:45:23;;;;;;;69.77;38.33;;;;;;;6.16;71.77;100029.44;254740;1105;116418;-67
2021/03/27 02:50:48;;;;;;;65.12;36.35;;;;;;;6.19;71.60;100029.86;254842;1105;115173;-67
2021/03/27 02:56:00;;;;;;;63.58;33.67;;;;;;;6.24;69.85;100035.38;254231;1104;115909;-66
2021/03/27 03:01:29;;;;;;;66.97;35.97;;;;;;;6.26;68.61;100030.70;253371;1104;115532;-68
2021/03/27 03:07:10;;;;;;;48.08;27.77;;;;;;;6.25;69.49;100030.91;254948;1104;115996;-69
2021/03/27 03:12:52;;;;;;;62.48;33.35;;;;;;;6.28;70.39;100030.51;253282;1105;115991;-68
2021/03/27 03:18:15;;;;;;;42.55;20.75;;;;;;;6.27;70.15;100018.28;252257;1105;116794;-69
2021/03/27 03:23:33;;;;;;;50.28;27.25;;;;;;;6.23;70.09;100007.27;253138;1104;117546;-69
2021/03/27 03:29:12;;;;;;;71.62;35.28;;;;;;;6.28;69.94;100009.33;253632;1104;116183;-69
2021/03/27 03:34:34;;;;;;;65.97;36.83;;;;;;;6.31;67.34;100014.22;252855;1105;116188;-68
2021/03/27 03:40:08;;;;;;;39.93;23.73;;;;;;;6.32;68.41;100016.67;253139;1104;116979;-67
2021/03/27 03:45:37;;;;;;;60.23;34.80;;;;;;;6.36;68.01;100012.61;251691;1105;115268;-64
2021/03/27 03:50:47;;;;;;;61.45;37.80;;;;;;;6.38;68.43;100009.77;252282;1104;116352;-68
2021/03/27 03:56:17;;;;;;;59.67;34.08;;;;;;;6.38;68.83;100002.64;251856;1105;115160;-67
2021/03/27 04:01:27;;;;;;;69.97;35.33;;;;;;;6.38;68.12;99999.99;251668;1105;115549;-67
2021/03/27 04:06:36;;;;;;;58.80;33.63;;;;;;;6.33;69.37;100001.61;252656;1104;115944;-68
2021/03/27 04:11:49;;;;;;;69.27;35.28;;;;;;;6.25;70.14;99988.55;252566;1104;115775;-68
2021/03/27 04:17:06;;;;;;;72.70;37.95;;;;;;;6.27;69.55;99992.63;252378;1104;138758;-64
2021/03/27 04:22:20;;;;;;;44.77;29.65;;;;;;;6.26;70.69;99987.53;253496;1104;117239;-65
2021/03/27 04:27:32;;;;;;;53.90;30.82;;;;;;;6.24;70.59;99985.08;253912;1104;114992;-66
2021/03/27 04:32:47;;;;;;;58.87;32.80;;;;;;;6.23;70.26;99977.34;253848;1104;115151;-67
2021/03/27 04:38:28;;;;;;;50.65;26.17;;;;;;;6.22;69.22;99973.06;253788;1104;115699;-66
2021/03/27 04:43:54;;;;;;;53.58;30.27;;;;;;;6.21;70.24;99966.95;254336;1104;114919;-66
2021/03/27 04:49:20;;;;;;;72.97;36.25;;;;;;;6.29;69.05;99972.06;253707;1105;115781;-65
2021/03/27 04:54:55;;;;;;;23.02;12.82;;;;;;;6.30;69.47;99970.23;255121;1104;116931;-66
2021/03/27 05:00:26;;;;;;;51.65;27.52;;;;;;;6.31;69.48;99972.68;255118;1104;115984;-65
2021/03/27 05:06:11;;;;;;;36.10;22.73;;;;;;;6.24;68.95;99965.73;253413;1105;116928;-65
2021/03/27 05:11:32;;;;;;;53.20;31.17;;;;;;;6.25;69.57;99967.37;254371;1104;116216;-66
2021/03/27 05:16:40;;;;;;;80.47;41.00;;;;;;;6.39;67.27;99975.14;252059;1105;116161;-65
2021/03/27 05:21:56;;;;;;;70.65;35.28;;;;;;;6.48;67.48;99969.63;252739;1105;116597;-66
2021/03/27 05:27:25;;;;;;;63.33;36.68;;;;;;;6.58;67.18;99959.47;252425;1105;116238;-65
2021/03/27 05:32:54;;;;;;;43.48;25.85;;;;;;;6.69;66.97;99959.69;252250;1105;115773;-65
2021/03/27 05:38:22;;;;;;;27.80;15.30;;;;;;;6.79;66.43;99943.36;252110;1105;116412;-66
2021/03/27 05:43:31;;;;;;;;;;;;;;;6.95;66.03;99942.13;253094;1105;115899;-66
2021/03/27 05:49:13;;;;;;;64.58;38.15;;;;;;;7.09;67.19;99943.72;253602;1104;104187;-66
2021/03/27 05:54:42;;;;;;;67.40;37.10;;;;;;;7.28;65.39;99944.72;251955;1105;116354;-65
2021/03/27 06:00:05;;;;;;;64.35;35.13;;;;;;;7.39;65.22;99941.41;251947;1105;117360;-66
2021/03/27 06:05:30;;;;;;;64.03;33.92;;;;;;;7.45;65.52;99945.88;252253;1104;116700;-66
2021/03/27 06:10:37;;;;;;;73.42;40.58;;;;;;;7.60;64.35;99938.49;252560;1105;116141;-66
2021/03/27 06:16:05;;;;;;;48.70;26.93;;;;;;;7.67;64.75;99923.34;252580;1104;115490;-66
2021/03/27 06:21:08;;;;;;;;;;;;;;;7.88;63.89;99926.73;251492;1105;116754;-67
2021/03/27 06:26:26;;;;;;;53.48;32.53;;;;;;;8.08;63.98;99924.77;252985;1105;103960;-65
2021/03/27 06:31:53;;;;;;;41.10;24.82;;;;;;;8.29;61.94;99921.75;252681;1105;115813;-65
2021/03/27 06:37:37;;;;;;;52.80;32.33;;;;;;;8.61;61.37;99921.75;253370;1104;115768;-67
2021/03/27 06:42:59;;;;;;;47.23;28.95;;;;;;;8.90;59.06;99912.28;253023;1105;115222;-66
2021/03/27 06:48:36;;;;;;;37.67;23.38;;;;;;;9.24;58.08;99917.05;252982;1105;116152;-66
2021/03/27 06:53:52;;;;;;;39.20;23.30;;;;;;;9.55;56.86;99916.08;254702;1105;116712;-67
2021/03/27 06:59:15;;;;;;;41.58;23.30;;;;;;;9.83;55.90;99917.36;255016;1105;115900;-66
2021/03/27 07:04:28;;;;;;;50.23;28.65;;;;;;;10.10;56.14;99907.95;254689;1104;115065;-66
2021/03/27 07:09:35;;;;;;;40.67;22.65;;;;;;;10.29;54.50;99904.23;252558;1104;116230;-68
2021/03/27 07:14:50;;;;;;;53.13;29.72;;;;;;;10.82;53.96;99900.69;254794;1104;115688;-67
2021/03/27 07:20:12;;;;;;;45.05;26.37;;;;;;;11.58;52.72;99896.98;254588;1104;116005;-66
2021/03/27 07:25:37;;;;;;;45.50;25.40;;;;;;;12.15;50.68;99902.34;252709;1105;116186;-66
2021/03/27 07:30:41;;;;;;;42.27;25.23;;;;;;;12.78;48.01;99879.82;251896;1105;118835;-66
2021/03/27 07:36:09;;;;;;;37.28;22.02;;;;;;;12.90;47.14;99883.19;253309;1105;115584;-67
2021/03/27 07:41:35;;;;;;;30.48;16.70;;;;;;;13.04;46.86;99884.47;251512;1105;116298;-67
2021/03/27 07:47:16;;;;;;;36.95;23.22;;;;;;;13.11;47.74;99882.42;252725;1105;115482;-66
2021/03/27 07:52:29;;;;;;;34.00;20.93;;;;;;;13.01;46.20;99876.93;252000;1105;115794;-66
2021/03/27 07:58:06;;;;;;;40.13;22.30;;;;;;;13.06;47.76;99862.81;252685;1105;115663;-67
2021/03/27 08:03:41;;;;;;;40.20;21.23;;;;;;;13.12;48.79;99867.98;252037;1104;117145;-67
2021/03/27 08:08:59;;;;;;;27.00;17.97;;;;;;;13.13;46.73;99874.96;252533;1105;115944;-67
2021/03/27 08:14:39;;;;;;;30.82;17.80;;;;;;;13.32;47.37;99869.32;252084;1105;115479;-67
2021/03/27 08:20:18;;;;;;;40.10;17.52;;;;;;;13.53;46.77;99875.72;251666;1105;115775;-66
2021/03/27 08:25:37;;;;;;;23.05;13.28;;;;;;;13.86;47.07;99861.34;252856;1104;115316;-67
2021/03/27 08:31:19;;;;;;;28.45;16.00;;;;;;;13.92;46.05;99855.78;251474;1105;115119;-67
2021/03/27 08:36:42;;;;;;;31.93;16.17;;;;;;;14.21;45.35;99853.63;252833;1104;115703;-67
2021/03/27 08:42:13;;;;;;;21.67;11.33;;;;;;;14.44;44.30;99842.57;252718;1105;115225;-68
2021/03/27 08:47:19;;;;;;;25.30;13.10;;;;;;;14.71;43.46;99844.36;251569;1105;116341;-67
2021/03/27 08:52:37;;;;;;;31.73;16.25;;;;;;;15.03;42.98;99841.58;253250;1105;116078;-67
2021/03/27 08:58:04;;;;;;;27.27;15.63;;;;;;;15.23;42.88;99830.95;253443;1105;115980;-67
2021/03/27 09:03:12;;;;;;;;;;;;;;;15.43;42.57;99833.70;255044;1104;115407;-67
2021/03/27 09:08:39;;;;;;;25.80;15.70;;;;;;;15.82;42.05;99814.47;255458;1104;102781;-65
2021/03/27 09:14:21;;;;;;;21.50;15.18;;;;;;;16.16;42.40;99809.38;253901;1105;115954;-66
2021/03/27 09:19:46;;;;;;;31.35;17.27;;;;;;;16.28;42.10;99799.14;254039;1104;115253;-65
2021/03/27 09:25:10;;;;;;;31.77;15.58;;;;;;;16.53;41.02;99802.86;254781;1104;116682;-65
2021/03/27 09:30:31;;;;;;;21.82;16.02;;;;;;;16.77;42.03;99815.52;254255;1105;115159;-67
2021/03/27 09:36:09;;;;;;;25.20;16.60;;;;;;;16.96;41.68;99813.02;252331;1105;115588;-66
2021/03/27 09:41:39;;;;;;;26.70;16.30;;;;;;;17.11;40.39;99806.78;252652;1104;115810;-67
2021/03/27 09:47:18;;;;;;;35.45;18.35;;;;;;;16.98;40.14;99810.86;251629;1105;115823;-66
2021/03/27 09:52:26;;;;;;;31.70;20.50;;;;;;;17.12;40.23;99814.56;251702;1104;117521;-67
2021/03/27 09:58:12;;;;;;;25.08;17.82;;;;;;;17.25;40.30;99812.37;252245;1104;115310;-67
2021/03/27 10:03:33;;;;;;;25.95;18.30;;;;;;;17.52;39.17;99807.37;252984;1105;115657;-66
2021/03/27 10:08:47;;;;;;;26.68;16.75;;;;;;;17.63;40.52;99798.15;251913;1104;116220;-69
2021/03/27 10:13:57;;;;;;;31.20;18.20;;;;;;;17.78;39.14;99798.06;251609;1105;116965;-68
2021/03/27 10:19:09;;;;;;;25.77;14.40;;;;;;;17.90;38.66;99796.91;252309;1105;115978;-65
2021/03/27 10:24:13;;;;;;;21.75;14.80;;;;;;;18.25;38.93;99785.83;252255;1105;116812;-65
2021/03/27 10:29:42;;;;;;;18.37;10.20;;;;;;;18.44;36.64;99784.02;252729;1104;116228;-66
2021/03/27 10:34:53;;;;;;;19.35;13.80;;;;;;;18.48;35.78;99787.76;253881;1104;116258;-66
2021/03/27 10:40:34;;;;;;;19.02;13.48;;;;;;;18.54;35.32;99787.71;253006;1104;115515;-66
2021/03/27 10:46:15;;;;;;;22.02;13.10;;;;;;;18.46;35.05;99783.73;252784;1104;116770;-65
2021/03/27 10:51:22;;;;;;;25.17;12.80;;;;;;;18.25;34.36;99793.92;251562;1105;115878;-66
2021/03/27 10:56:28;;;;;;;;;;;;;;;18.08;35.67;99790.81;252389;1105;115724;-66
2021/03/27 11:01:41;;;;;;;19.15;12.13;;;;;;;17.97;37.36;99797.41;254802;1105;104183;-66
2021/03/27 11:07:11;;;;;;;19.07;12.82;;;;;;;18.21;36.26;99792.88;253778;1105;118019;-66
2021/03/27 11:12:47;;;;;;;16.12;10.98;;;;;;;18.49;37.13;99783.97;254672;1104;115736;-66
2021/03/27 11:18:07;;;;;;;21.70;11.12;;;;;;;18.64;37.68;99784.95;253179;1104;116272;-67
2021/03/27 11:23:29;;;;;;;18.90;11.53;;;;;;;18.68;35.38;99789.46;253900;1104;115844;-66
2021/03/27 11:28:39;;;;;;;14.98;9.10;;;;;;;18.51;37.59;99802.58;254746;1105;115707;-66
2021/03/27 11:33:55;;;;;;;23.12;12.05;;;;;;;18.45;36.29;99815.31;254711;1104;116784;-66
2021/03/27 11:39:11;;;;;;;20.85;11.05;;;;;;;18.15;36.64;99815.59;254508;1105;116973;-67
2021/03/27 11:44:38;;;;;;;17.07;10.93;;;;;;;18.09;38.53;99806.72;252360;1105;118902;-66
2021/03/27 11:49:53;;;;;;;18.52;11.25;;;;;;;18.11;37.06;99809.14;253793;1105;117762;-67
2021/03/27 11:55:17;;;;;;;20.50;12.33;;;;;;;18.11;36.61;99814.53;251804;1105;117028;-66
2021/03/27 12:05:54;;;;;;;13.97;9.43;;;;;;;17.64;37.43;99810.54;252755;1105;115434;-67
2021/03/27 12:11:03;;;;;;;18.20;10.80;;;;;;;17.62;37.77;99811.91;252392;1104;116026;-66
2021/03/27 12:16:34;;;;;;;19.45;11.55;;;;;;;17.47;37.91;99818.17;251638;1105;116799;-66
2021/03/27 12:22:00;;;;;;;17.07;10.63;;;;;;;17.29;38.14;99822.31;252479;1105;116612;-65
2021/03/27 12:27:14;;;;;;;19.93;11.10;;;;;;;17.16;39.23;99830.98;251679;1105;116088;-66
2021/03/27 12:32:38;;;;;;;17.55;11.03;;;;;;;17.13;38.96;99828.84;252472;1105;115490;-66
2021/03/27 12:38:11;;;;;;;14.23;10.23;;;;;;;16.96;39.21;99834.56;251774;1105;116239;-66
2021/03/27 12:43:18;;;;;;;18.12;10.08;;;;;;;16.78;39.35;99841.36;252189;1105;116473;-66
2021/03/27 12:48:27;;;;;;;13.18;10.48;;;;;;;16.40;39.73;99848.10;252513;1105;115326;-66
2021/03/27 12:53:49;;;;;;;16.67;10.05;;;;;;;16.22;41.48;99851.31;252052;1105;116136;-66
2021/03/27 12:59:12;;;;;;;16.77;11.33;;;;;;;16.24;42.09;99846.47;252618;1105;116128;-66
2021/03/27 13:04:24;;;;;;;15.58;9.63;;;;;;;16.32;42.30;99843.25;252559;1105;115767;-66
2021/03/27 13:09:56;;;;;;;18.60;9.93;;;;;;;16.37;41.82;99851.33;252841;1105;116817;-66
2021/03/27 13:15:28;;;;;;;13.53;6.97;;;;;;;16.46;41.76;99860.48;253747;1104;115923;-66
2021/03/27 13:20:48;;;;;;;11.77;8.53;;;;;;;16.47;41.33;99851.33;252676;1105;115873;-66
2021/03/27 13:25:59;;;;;;;8.35;6.30;;;;;;;16.47;41.60;99862.09;253717;1105;115453;-66
2021/03/27 13:31:15;;;;;;;12.43;7.37;;;;;;;16.26;40.38;99865.84;254590;1104;115857;-66
2021/03/27 13:36:24;;;;;;;13.00;6.60;;;;;;;15.97;42.57;99888.94;254519;1105;115700;-65
2021/03/27 13:41:30;;;;;;;14.25;8.50;;;;;;;15.35;49.58;99946.20;254691;1105;114945;-65
2021/03/27 13:47:13;;;;;;;11.53;5.95;;;;;;;14.45;53.65;99964.08;254949;1105;116011;-65
2021/03/27 15:07:19;;;;;;;3.83;3.22;;;;;;;9.37;81.21;100150.23;258383;1105;104130;-67
2021/03/27 15:12:25;;;;;;;6.65;4.60;;;;;;;9.61;80.69;100157.39;251854;1105;115385;-65
2021/03/27 15:17:29;;;;;;;;;;;;;;;9.69;78.62;100154.45;252660;1104;114712;-66
2021/03/27 15:22:58;;;;;;;4.25;3.25;;;;;;;9.49;78.66;100161.78;251787;1105;104957;-66
2021/03/27 15:28:20;;;;;;;10.20;4.97;;;;;;;9.52;78.04;100177.31;252007;1105;114658;-66
2021/03/27 15:33:29;;;;;;;6.42;4.67;;;;;;;9.45;76.23;100181.89;251812;1105;115308;-67
2021/03/27 15:38:38;;;;;;;5.00;4.22;;;;;;;9.42;76.43;100199.11;252614;1105;114963;-66
2021/03/27 15:44:05;;;;;;;2.50;2.25;;;;;;;9.40;73.39;100198.50;251826;1105;114906;-67
2021/03/27 15:49:22;;;;;;;2.85;2.65;;;;;;;9.34;68.77;100193.22;252089;1105;115048;-67
2021/03/27 15:54:41;;;;;;;3.27;2.12;;;;;;;9.32;69.45;100195.28;251942;1105;114347;-66
2021/03/27 16:00:11;;;;;;;5.92;2.75;;;;;;;9.31;67.93;100201.62;251033;1105;115251;-66
2021/03/27 16:05:29;;;;;;;4.15;3.83;;;;;;;9.27;69.17;100219.86;252146;1105;137879;-68
2021/03/27 16:10:38;;;;;;;4.05;3.60;;;;;;;9.16;68.99;100228.55;252721;1105;115862;-66
2021/03/27 16:15:55;;;;;;;4.90;3.85;;;;;;;9.03;70.11;100223.28;251198;1105;116180;-67
2021/03/27 16:21:35;;;;;;;3.10;2.77;;;;;;;8.90;72.71;100229.47;252228;1106;117551;-65
2021/03/27 16:26:40;;;;;;;5.20;3.40;;;;;;;8.96;72.12;100233.95;251148;1105;116186;-65
2021/03/27 16:32:14;;;;;;;7.90;3.33;;;;;;;8.96;70.13;100243.77;251068;1105;118059;-66
2021/03/27 16:37:43;;;;;;;7.90;3.85;;;;;;;8.86;69.64;100249.55;251998;1105;116436;-66
2021/03/27 16:43:01;;;;;;;5.37;3.22;;;;;;;8.73;70.46;100261.05;253850;1104;116634;-66
2021/03/27 16:48:27;;;;;;;2.40;2.12;;;;;;;8.64;69.25;100264.95;252580;1105;115808;-67
2021/03/27 16:54:01;;;;;;;4.20;3.80;;;;;;;8.68;69.41;100278.64;251603;1105;116101;-66
2021/03/27 16:59:54;;;;;;;6.10;3.83;;;;;;;8.59;69.68;100286.01;254220;1105;117735;-67
2021/03/27 17:05:07;;;;;;;6.72;3.35;;;;;;;8.51;68.71;100294.23;253103;1105;115238;-67
2021/03/27 17:10:16;;;;;;;5.53;4.50;;;;;;;8.30;70.45;100297.06;254159;1105;115972;-67
2021/03/27 17:15:44;;;;;;;6.53;4.33;;;;;;;8.15;70.09;100305.27;252738;1105;114799;-68
2021/03/27 17:21:02;;;;;;;8.25;5.05;;;;;;;8.05;70.87;100305.67;252999;1105;116609;-69
2021/03/27 17:26:49;;;;;;;5.42;4.92;;;;;;;7.99;70.94;100316.28;252589;1105;115593;-69
2021/03/27 17:32:07;;;;;;;;;;;;;;;7.84;71.23;100320.98;251805;1108;116546;-70
2021/03/27 17:37:29;;;;;;;12.13;5.25;;;;;;;7.70;72.00;100342.17;252342;1105;105747;-69
2021/03/27 17:43:13;;;;;;;9.08;4.62;;;;;;;7.53;71.87;100348.06;251060;1105;116236;-68
2021/03/27 17:48:33;;;;;;;8.03;4.92;;;;;;;7.32;73.12;100356.98;251265;1106;116105;-69
2021/03/27 17:53:40;;;;;;;8.03;6.00;;;;;;;7.21;73.28;100358.36;251223;1106;115574;-68
2021/03/27 17:58:49;;;;;;;11.70;5.83;;;;;;;7.10;74.35;100372.98;251140;1105;116109;-68
2021/03/27 18:04:11;;;;;;;12.77;6.80;;;;;;;6.98;74.16;100381.70;251657;1108;116208;-68
2021/03/27 18:09:20;;;;;;;10.90;7.12;;;;;;;6.81;75.42;100393.60;251050;1106;115964;-67
2021/03/27 18:15:05;;;;;;;10.53;5.62;;;;;;;6.68;74.71;100392.52;251067;1105;116204;-67
2021/03/27 18:20:37;;;;;;;16.55;6.85;;;;;;;6.56;74.75;100393.23;250919;1106;115558;-67
2021/03/27 18:25:54;;;;;;;7.35;5.90;;;;;;;6.43;75.57;100388.64;251185;1105;115877;-67
2021/03/27 18:31:11;;;;;;;9.58;6.28;;;;;;;6.24;76.76;100392.77;252215;1104;115641;-67
2021/03/27 18:36:28;;;;;;;10.60;6.20;;;;;;;6.13;77.06;100403.86;251100;1105;115447;-67
2021/03/27 18:41:35;;;;;;;;;;;;;;;6.04;77.30;100403.19;251615;1105;116731;-66
2021/03/27 18:46:45;;;;;;;10.30;6.10;;;;;;;5.94;77.78;100412.44;254325;1108;102456;-67
2021/03/27 18:52:07;;;;;;;13.27;8.30;;;;;;;5.92;78.30;100406.51;251043;1105;114783;-68
2021/03/27 18:57:21;;;;;;;12.68;8.75;;;;;;;6.04;77.68;100407.66;254187;1105;114554;-68
2021/03/27 19:02:26;;;;;;;12.13;9.90;;;;;;;6.14;77.07;100413.44;254274;1104;116761;-68
2021/03/27 19:07:28;;;;;;;18.40;11.05;;;;;;;6.14;76.78;100397.56;254253;1104;115158;-70
2021/03/27 19:12:36;;;;;;;15.90;10.00;;;;;;;6.11;76.60;100411.20;254263;1104;115543;-70
2021/03/27 19:17:59;;;;;;;18.85;9.10;;;;;;;6.11;77.26;100418.32;253869;1105;114707;-70
2021/03/27 19:23:14;;;;;;;16.30;9.93;;;;;;;6.11;77.35;100442.96;253168;1104;115998;-70
2021/03/27 19:28:21;;;;;;;16.82;8.85;;;;;;;6.12;77.92;100481.63;252062;1105;115973;-68
2021/03/27 19:33:32;;;;;;;11.48;6.33;;;;;;;5.86;80.40;100524.46;251016;1106;115546;-67
2021/03/27 19:38:40;;;;;;;6.95;4.87;;;;;;;5.60;80.72;100463.30;251844;1105;116511;-68
2021/03/27 19:44:02;;;;;;;7.20;5.40;;;;;;;5.55;81.50;100476.25;251187;1105;114615;-67
2021/03/27 19:49:33;;;;;;;7.15;4.45;;;;;;;5.50;82.03;100483.94;251003;1106;120646;-68
2021/03/27 19:55:10;;;;;;;13.75;6.20;;;;;;;5.55;82.25;100507.98;251645;1105;114732;-68
2021/03/27 20:00:29;;;;;;;12.50;6.55;;;;;;;5.52;82.16;100490.66;251044;1106;115231;-67
2021/03/27 20:05:43;;;;;;;10.27;6.00;;;;;;;5.44;82.30;100498.70;251612;1105;116623;-68
2021/03/27 20:10:50;;;;;;;8.60;6.22;;;;;;;5.35;82.57;100510.36;250957;1105;115730;-69
2021/03/27 20:16:01;;;;;;;11.12;6.83;;;;;;;5.36;81.93;100506.72;251048;1105;115798;-69
2021/03/27 20:21:27;;;;;;;13.03;8.00;;;;;;;5.41;82.34;100514.93;251162;1105;115972;-68
2021/03/27 20:26:50;;;;;;;14.75;8.80;;;;;;;5.43;82.56;100527.97;250937;1104;115842;-66
2021/03/27 20:32:00;;;;;;;8.60;6.03;;;;;;;5.40;82.65;100527.33;252541;1105;116685;-69
2021/03/27 20:37:49;;;;;;;12.33;6.25;;;;;;;5.37;82.23;100540.09;251389;1105;115362;-69
2021/03/27 20:42:58;;;;;;;9.75;5.87;;;;;;;5.29;83.36;100548.09;252209;1105;115650;-69
2021/03/27 20:48:23;;;;;;;9.10;6.15;;;;;;;5.24;83.37;100540.70;252824;1105;114532;-69
2021/03/27 20:53:26;;;;;;;6.60;5.30;;;;;;;5.14;83.03;100555.19;252442;1104;115164;-68
2021/03/27 20:58:48;;;;;;;14.35;6.22;;;;;;;5.15;83.00;100572.69;254493;1104;114918;-68
2021/03/27 21:04:07;;;;;;;13.08;5.47;;;;;;;5.15;82.07;100575.34;253721;1106;114949;-68
2021/03/27 21:09:26;;;;;;;4.67;3.90;;;;;;;5.10;81.58;100594.37;253654;1105;115017;-68
2021/03/27 21:14:38;;;;;;;6.47;5.55;;;;;;;4.98;80.67;100596.59;253736;1105;114545;-67
2021/03/27 21:20:10;;;;;;;10.28;3.67;;;;;;;4.93;81.31;100592.84;254390;1105;115176;-65
2021/03/27 21:25:31;;;;;;;5.60;4.05;;;;;;;4.87;80.67;100612.89;253183;1105;114618;-66
2021/03/27 21:30:38;;;;;;;7.03;3.83;;;;;;;4.82;79.94;100614.41;252817;1105;115264;-66
2021/03/27 21:36:22;;;;;;;19.60;5.33;;;;;;;4.72;80.41;100622.55;252580;1108;114906;-67
2021/03/27 21:41:52;;;;;;;6.62;3.85;;;;;;;4.47;80.44;100621.05;252586;1105;114491;-67
2021/03/27 21:47:23;;;;;;;4.27;3.80;;;;;;;4.31;80.92;100627.22;252633;1105;115489;-67
2021/03/27 21:52:41;;;;;;;8.40;4.17;;;;;;;4.24;80.73;100635.03;251124;1108;114567;-68
2021/03/27 21:58:15;;;;;;;10.98;4.50;;;;;;;4.07;80.81;100643.98;252097;1105;114703;-68
2021/03/27 22:03:25;;;;;;;7.67;5.50;;;;;;;3.98;80.94;100659.02;251433;1108;114987;-68
2021/03/27 22:08:41;;;;;;;9.25;4.50;;;;;;;3.86;81.93;100660.38;251776;1106;115023;-68
2021/03/27 22:13:53;;;;;;;10.03;5.28;;;;;;;3.78;81.80;100654.30;252395;1107;114397;-68
2021/03/27 22:19:00;;;;;;;7.85;4.65;;;;;;;3.73;81.44;100674.08;251175;1104;114666;-68
2021/03/27 22:24:25;;;;;;;10.00;5.30;;;;;;;3.62;81.13;100681.53;251193;1105;114704;-68
2021/03/27 22:29:40;;;;;;;8.98;7.00;;;;;;;3.54;81.13;100690.26;251865;1105;114771;-69
2021/03/27 22:34:48;;;;;;;7.37;5.65;;;;;;;3.44;83.67;100691.41;252512;1105;114950;-68
2021/03/27 22:40:24;;;;;;;8.63;5.23;;;;;;;3.46;81.61;100681.52;252616;1105;114573;-67
2021/03/27 22:45:36;;;;;;;8.45;5.35;;;;;;;3.44;81.85;100696.68;251957;1105;115621;-67
2021/03/27 22:51:00;;;;;;;14.13;4.90;;;;;;;3.33;81.82;100697.85;252043;1105;114874;-67
2021/03/27 22:56:19;;;;;;;7.50;4.47;;;;;;;3.15;82.46;100697.16;252308;1108;114781;-67
2021/03/27 23:02:00;;;;;;;8.80;5.15;;;;;;;3.04;82.30;100706.22;252457;1105;114524;-66
2021/03/27 23:07:22;;;;;;;8.30;4.78;;;;;;;2.98;82.46;100709.50;253504;1108;115203;-69
2021/03/27 23:12:43;;;;;;;8.75;5.65;;;;;;;2.86;81.61;100708.97;251862;1109;114856;-68
2021/03/27 23:17:48;;;;;;;11.12;4.70;;;;;;;2.76;83.58;100710.91;254047;1105;114683;-68
2021/03/27 23:23:19;;;;;;;8.93;4.22;;;;;;;2.70;82.76;100711.56;253978;1105;114953;-69
2021/03/27 23:28:24;;;;;;;8.15;4.67;;;;;;;2.73;82.57;100708.62;254218;1105;114243;-69
2021/03/27 23:33:31;;;;;;;13.93;5.47;;;;;;;2.70;83.07;100722.09;253988;1105;114663;-69
2021/03/27 23:39:01;;;;;;;8.63;4.37;;;;;;;2.65;82.74;100719.11;252401;1105;114620;-68
2021/03/27 23:44:11;;;;;;;9.80;4.70;;;;;;;2.60;81.85;100722.22;252491;1105;114801;-68
2021/03/27 23:49:19;;;;;;;12.00;5.80;;;;;;;2.61;82.60;100733.58;251697;1106;114846;-69
2021/03/27 23:54:35;;;;;;;9.80;3.98;;;;;;;2.57;82.46;100742.77;251207;1105;115189;-69
2021/03/27 23:59:57;;;;;;;6.03;3.95;;;;;;;2.41;83.93;100745.34;252363;1104;116162;-69
